sensor_id;sensor_type;location;lat;lon;timestamp;pressure;altitude;pressure_sealevel;temperature;humidity
61506;BME280;47366;51.916;4.574;2023-01-29T00:00:47;103166.78;;;3.54;80.53
61506;BME280;47366;51.916;4.574;2023-01-29T00:03:12;103170.34;;;3.51;79.82
61506;BME280;47366;51.916;4.574;2023-01-29T00:05:37;103164.94;;;3.50;80.03
61506;BME280;47366;51.916;4.574;2023-01-29T00:08:03;103159.59;;;3.50;80.37
61506;BME280;47366;51.916;4.574;2023-01-29T00:10:28;103150.66;;;3.48;80.80
61506;BME280;47366;51.916;4.574;2023-01-29T00:12:54;103153.34;;;3.52;80.25
61506;BME280;47366;51.916;4.574;2023-01-29T00:15:19;103150.69;;;3.52;80.75
61506;BME280;47366;51.916;4.574;2023-01-29T00:17:44;103151.56;;;3.51;80.64
61506;BME280;47366;51.916;4.574;2023-01-29T00:20:10;103142.63;;;3.52;80.60
61506;BME280;47366;51.916;4.574;2023-01-29T00:22:36;103138.19;;;3.54;80.70
61506;BME280;47366;51.916;4.574;2023-01-29T00:25:01;103136.38;;;3.52;80.65
61506;BME280;47366;51.916;4.574;2023-01-29T00:27:26;103133.72;;;3.52;80.49
61506;BME280;47366;51.916;4.574;2023-01-29T00:29:52;103127.44;;;3.50;80.66
61506;BME280;47366;51.916;4.574;2023-01-29T00:32:35;103127.44;;;3.44;81.16
61506;BME280;47366;51.916;4.574;2023-01-29T00:35:01;103128.31;;;3.44;80.79
61506;BME280;47366;51.916;4.574;2023-01-29T00:37:26;103125.66;;;3.46;81.09
61506;BME280;47366;51.916;4.574;2023-01-29T00:39:51;103139.06;;;3.50;81.00
61506;BME280;47366;51.916;4.574;2023-01-29T00:42:17;103129.25;;;3.52;81.17
61506;BME280;47366;51.916;4.574;2023-01-29T00:45:01;103148.94;;;3.56;80.86
61506;BME280;47366;51.916;4.574;2023-01-29T00:47:26;103137.31;;;3.54;80.88
61506;BME280;47366;51.916;4.574;2023-01-29T00:49:55;103118.53;;;3.54;81.12
61506;BME280;47366;51.916;4.574;2023-01-29T00:52:21;103115.84;;;3.51;81.30
61506;BME280;47366;51.916;4.574;2023-01-29T00:54:57;103116.72;;;3.50;81.65
61506;BME280;47366;51.916;4.574;2023-01-29T00:57:24;103113.13;;;3.48;81.69
61506;BME280;47366;51.916;4.574;2023-01-29T00:59:50;103113.16;;;3.46;81.16
61506;BME280;47366;51.916;4.574;2023-01-29T01:02:16;103107.81;;;3.49;81.06
61506;BME280;47366;51.916;4.574;2023-01-29T01:05:00;103096.19;;;3.52;81.28
61506;BME280;47366;51.916;4.574;2023-01-29T01:07:30;103105.13;;;3.49;81.42
61506;BME280;47366;51.916;4.574;2023-01-29T01:09:55;103093.53;;;3.49;81.20
61506;BME280;47366;51.916;4.574;2023-01-29T01:12:40;103102.47;;;3.54;81.26
61506;BME280;47366;51.916;4.574;2023-01-29T01:15:05;103100.69;;;3.56;81.36
61506;BME280;47366;51.916;4.574;2023-01-29T01:17:31;103099.81;;;3.55;81.16
61506;BME280;47366;51.916;4.574;2023-01-29T01:19:56;103098.88;;;3.55;80.63
61506;BME280;47366;51.916;4.574;2023-01-29T01:22:21;103104.25;;;3.55;81.11
61506;BME280;47366;51.916;4.574;2023-01-29T01:24:47;103106.06;;;3.56;80.95
61506;BME280;47366;51.916;4.574;2023-01-29T01:27:12;103106.94;;;3.56;81.08
61506;BME280;47366;51.916;4.574;2023-01-29T01:29:38;103110.53;;;3.58;81.02
61506;BME280;47366;51.916;4.574;2023-01-29T01:32:04;103109.63;;;3.56;80.98
61506;BME280;47366;51.916;4.574;2023-01-29T01:34:30;103114.06;;;3.54;81.31
61506;BME280;47366;51.916;4.574;2023-01-29T01:36:55;103118.53;;;3.54;81.33
61506;BME280;47366;51.916;4.574;2023-01-29T01:39:21;103127.47;;;3.54;81.12
61506;BME280;47366;51.916;4.574;2023-01-29T01:41:46;103123.91;;;3.54;81.43
61506;BME280;47366;51.916;4.574;2023-01-29T01:44:50;103127.50;;;3.53;81.63
61506;BME280;47366;51.916;4.574;2023-01-29T01:47:17;103127.50;;;3.53;81.87
61506;BME280;47366;51.916;4.574;2023-01-29T01:49:46;103124.75;;;3.50;81.52
61506;BME280;47366;51.916;4.574;2023-01-29T01:52:12;103123.00;;;3.52;81.58
61506;BME280;47366;51.916;4.574;2023-01-29T01:54:41;103134.59;;;3.52;81.68
61506;BME280;47366;51.916;4.574;2023-01-29T01:57:16;103127.50;;;3.53;82.19
61506;BME280;47366;51.916;4.574;2023-01-29T01:59:47;103118.53;;;3.54;81.57
61506;BME280;47366;51.916;4.574;2023-01-29T02:02:15;103123.03;;;3.58;81.82
61506;BME280;47366;51.916;4.574;2023-01-29T02:04:59;103114.94;;;3.46;81.34
61506;BME280;47366;51.916;4.574;2023-01-29T02:07:45;103118.53;;;3.49;81.68
61506;BME280;47366;51.916;4.574;2023-01-29T02:10:36;103106.91;;;3.44;81.81
61506;BME280;47366;51.916;4.574;2023-01-29T02:13:05;103109.59;;;3.46;81.52
61506;BME280;47366;51.916;4.574;2023-01-29T02:15:30;103107.78;;;3.48;81.74
61506;BME280;47366;51.916;4.574;2023-01-29T02:17:56;103106.00;;;3.44;81.49
61506;BME280;47366;51.916;4.574;2023-01-29T02:20:27;103113.13;;;3.48;81.46
61506;BME280;47366;51.916;4.574;2023-01-29T02:36:59;103115.81;;;3.48;81.68
61506;BME280;47366;51.916;4.574;2023-01-29T02:39:35;103103.31;;;3.44;81.52
61506;BME280;47366;51.916;4.574;2023-01-29T02:44:51;103107.78;;;3.45;81.41
61506;BME280;47366;51.916;4.574;2023-01-29T02:50:30;103104.22;;;3.46;81.95
61506;BME280;47366;51.916;4.574;2023-01-29T02:53:09;103105.09;;;3.42;81.50
61506;BME280;47366;51.916;4.574;2023-01-29T02:55:46;103103.31;;;3.44;81.61
61506;BME280;47366;51.916;4.574;2023-01-29T02:58:24;103094.38;;;3.43;81.76
61506;BME280;47366;51.916;4.574;2023-01-29T03:00:53;103109.56;;;3.44;81.96
61506;BME280;47366;51.916;4.574;2023-01-29T03:03:24;103101.53;;;3.41;81.51
61506;BME280;47366;51.916;4.574;2023-01-29T03:06:03;103104.22;;;3.44;81.49
61506;BME280;47366;51.916;4.574;2023-01-29T03:08:40;103093.47;;;3.43;81.86
61506;BME280;47366;51.916;4.574;2023-01-29T03:11:11;103099.75;;;3.42;81.58
61506;BME280;47366;51.916;4.574;2023-01-29T03:14:06;103097.97;;;3.44;82.02
61506;BME280;47366;51.916;4.574;2023-01-29T03:19:12;103096.16;;;3.43;81.86
61506;BME280;47366;51.916;4.574;2023-01-29T03:21:43;103096.16;;;3.43;81.79
61506;BME280;47366;51.916;4.574;2023-01-29T03:27:30;103088.13;;;3.39;82.10
61506;BME280;47366;51.916;4.574;2023-01-29T03:30:17;103096.19;;;3.41;81.94
61506;BME280;47366;51.916;4.574;2023-01-29T03:33:05;103090.78;;;3.38;81.93
61506;BME280;47366;51.916;4.574;2023-01-29T03:35:36;103091.69;;;3.37;82.12
61506;BME280;47366;51.916;4.574;2023-01-29T03:38:06;103084.56;;;3.39;82.27
61506;BME280;47366;51.916;4.574;2023-01-29T03:43:46;103074.72;;;3.36;82.10
61506;BME280;47366;51.916;4.574;2023-01-29T03:46:27;103074.72;;;3.36;81.87
61506;BME280;47366;51.916;4.574;2023-01-29T03:51:42;103088.97;;;3.35;82.50
61506;BME280;47366;51.916;4.574;2023-01-29T03:54:24;103080.06;;;3.35;82.29
61506;BME280;47366;51.916;4.574;2023-01-29T03:57:13;103079.16;;;3.37;82.34
61506;BME280;47366;51.916;4.574;2023-01-29T04:02:23;103063.09;;;3.34;82.10
61506;BME280;47366;51.916;4.574;2023-01-29T04:05:03;103066.69;;;3.36;82.18
61506;BME280;47366;51.916;4.574;2023-01-29T04:07:30;103052.38;;;3.34;82.56
61506;BME280;47366;51.916;4.574;2023-01-29T04:10:15;103058.66;;;3.36;82.28
61506;BME280;47366;51.916;4.574;2023-01-29T04:12:47;103056.84;;;3.34;82.23
61506;BME280;47366;51.916;4.574;2023-01-29T04:15:15;103047.91;;;3.33;82.49
61506;BME280;47366;51.916;4.574;2023-01-29T04:17:51;103045.25;;;3.32;82.70
61506;BME280;47366;51.916;4.574;2023-01-29T04:20:19;103042.53;;;3.29;82.32
61506;BME280;47366;51.916;4.574;2023-01-29T04:22:47;103051.47;;;3.31;82.58
61506;BME280;47366;51.916;4.574;2023-01-29T04:25:16;103049.69;;;3.30;82.35
61506;BME280;47366;51.916;4.574;2023-01-29T04:38:59;103039.00;;;3.31;82.55
61506;BME280;47366;51.916;4.574;2023-01-29T04:41:41;103035.41;;;3.32;81.97
61506;BME280;47366;51.916;4.574;2023-01-29T04:44:19;103031.84;;;3.32;82.76
61506;BME280;47366;51.916;4.574;2023-01-29T04:47:00;103023.81;;;3.32;82.52
61506;BME280;47366;51.916;4.574;2023-01-29T04:52:20;103013.97;;;3.31;82.64
61506;BME280;47366;51.916;4.574;2023-01-29T04:57:44;103009.50;;;3.28;82.68
61506;BME280;47366;51.916;4.574;2023-01-29T05:00:22;103010.41;;;3.27;82.36
61506;BME280;47366;51.916;4.574;2023-01-29T05:02:51;103004.16;;;3.30;82.07
61506;BME280;47366;51.916;4.574;2023-01-29T05:05:18;102996.13;;;3.27;82.51
61506;BME280;47366;51.916;4.574;2023-01-29T05:07:45;102998.78;;;3.25;82.30
61506;BME280;47366;51.916;4.574;2023-01-29T05:10:13;102998.78;;;3.25;82.55
61506;BME280;47366;51.916;4.574;2023-01-29T05:12:42;102998.78;;;3.25;82.46
61506;BME280;47366;51.916;4.574;2023-01-29T05:15:14;102996.09;;;3.28;82.29
61506;BME280;47366;51.916;4.574;2023-01-29T05:17:41;103001.47;;;3.28;82.54
61506;BME280;47366;51.916;4.574;2023-01-29T05:20:07;102993.44;;;3.28;82.60
61506;BME280;47366;51.916;4.574;2023-01-29T05:22:36;102992.56;;;3.29;82.23
61506;BME280;47366;51.916;4.574;2023-01-29T05:25:18;102989.84;;;3.28;82.26
61506;BME280;47366;51.916;4.574;2023-01-29T05:27:44;102997.00;;;3.30;82.18
61506;BME280;47366;51.916;4.574;2023-01-29T05:30:28;102992.53;;;3.28;82.16
61506;BME280;47366;51.916;4.574;2023-01-29T05:32:53;102989.88;;;3.32;82.25
61506;BME280;47366;51.916;4.574;2023-01-29T05:35:19;102985.41;;;3.33;82.27
61506;BME280;47366;51.916;4.574;2023-01-29T05:37:44;102984.53;;;3.32;82.29
61506;BME280;47366;51.916;4.574;2023-01-29T05:40:10;102977.34;;;3.28;82.45
61506;BME280;47366;51.916;4.574;2023-01-29T05:42:35;102984.53;;;3.32;82.58
61506;BME280;47366;51.916;4.574;2023-01-29T05:45:01;102990.78;;;3.31;82.26
61506;BME280;47366;51.916;4.574;2023-01-29T05:47:26;102984.50;;;3.28;82.29
61506;BME280;47366;51.916;4.574;2023-01-29T05:49:52;102992.56;;;3.29;82.27
61506;BME280;47366;51.916;4.574;2023-01-29T05:52:17;102990.75;;;3.30;82.35
61506;BME280;47366;51.916;4.574;2023-01-29T05:54:42;102972.88;;;3.29;82.01
61506;BME280;47366;51.916;4.574;2023-01-29T05:57:08;102977.38;;;3.27;82.33
61506;BME280;47366;51.916;4.574;2023-01-29T05:59:33;102988.09;;;3.27;82.47
61506;BME280;47366;51.916;4.574;2023-01-29T06:01:58;102988.97;;;3.29;82.26
61506;BME280;47366;51.916;4.574;2023-01-29T06:04:24;102978.25;;;3.27;82.22
61506;BME280;47366;51.916;4.574;2023-01-29T06:06:49;102975.59;;;3.27;82.38
61506;BME280;47366;51.916;4.574;2023-01-29T06:09:14;102972.00;;;3.28;82.47
61506;BME280;47366;51.916;4.574;2023-01-29T06:11:40;102975.56;;;3.29;82.44
61506;BME280;47366;51.916;4.574;2023-01-29T06:14:05;102985.41;;;3.30;82.35
61506;BME280;47366;51.916;4.574;2023-01-29T06:16:30;102988.09;;;3.31;82.64
61506;BME280;47366;51.916;4.574;2023-01-29T06:18:56;102973.78;;;3.28;82.83
61506;BME280;47366;51.916;4.574;2023-01-29T06:21:21;102982.72;;;3.28;82.50
61506;BME280;47366;51.916;4.574;2023-01-29T06:23:46;102978.25;;;3.29;82.22
61506;BME280;47366;51.916;4.574;2023-01-29T06:26:13;102967.53;;;3.26;82.70
61506;BME280;47366;51.916;4.574;2023-01-29T06:28:39;102960.41;;;3.25;82.68
61506;BME280;47366;51.916;4.574;2023-01-29T06:31:05;102961.28;;;3.25;82.39
61506;BME280;47366;51.916;4.574;2023-01-29T06:33:31;102967.50;;;3.24;82.30
61506;BME280;47366;51.916;4.574;2023-01-29T06:35:57;102961.28;;;3.28;82.43
61506;BME280;47366;51.916;4.574;2023-01-29T06:38:23;102961.28;;;3.28;82.66
61506;BME280;47366;51.916;4.574;2023-01-29T06:40:49;102946.09;;;3.24;82.42
61506;BME280;47366;51.916;4.574;2023-01-29T06:43:14;102959.50;;;3.27;82.46
61506;BME280;47366;51.916;4.574;2023-01-29T06:45:52;102960.41;;;3.25;82.32
61506;BME280;47366;51.916;4.574;2023-01-29T06:48:18;102955.03;;;3.25;82.96
61506;BME280;47366;51.916;4.574;2023-01-29T06:50:44;102943.41;;;3.24;82.40
61506;BME280;47366;51.916;4.574;2023-01-29T06:53:10;102942.53;;;3.24;82.22
61506;BME280;47366;51.916;4.574;2023-01-29T06:55:35;102955.03;;;3.28;82.47
61506;BME280;47366;51.916;4.574;2023-01-29T06:58:08;102945.22;;;3.25;82.22
61506;BME280;47366;51.916;4.574;2023-01-29T07:00:35;102947.91;;;3.25;82.50
61506;BME280;47366;51.916;4.574;2023-01-29T07:03:01;102947.88;;;3.24;82.47
61506;BME280;47366;51.916;4.574;2023-01-29T07:05:27;102948.78;;;3.26;82.65
61506;BME280;47366;51.916;4.574;2023-01-29T07:07:53;102937.19;;;3.25;82.40
61506;BME280;47366;51.916;4.574;2023-01-29T07:10:19;102944.31;;;3.28;82.58
61506;BME280;47366;51.916;4.574;2023-01-29T07:12:44;102943.44;;;3.29;82.30
61506;BME280;47366;51.916;4.574;2023-01-29T07:15:09;102941.63;;;3.26;82.45
61506;BME280;47366;51.916;4.574;2023-01-29T07:17:37;102944.31;;;3.28;82.19
61506;BME280;47366;51.916;4.574;2023-01-29T07:20:02;102947.00;;;3.26;82.59
61506;BME280;47366;51.916;4.574;2023-01-29T07:22:28;102951.47;;;3.27;82.71
61506;BME280;47366;51.916;4.574;2023-01-29T07:24:53;102951.47;;;3.27;82.31
61506;BME280;47366;51.916;4.574;2023-01-29T07:27:18;102951.47;;;3.29;82.59
61506;BME280;47366;51.916;4.574;2023-01-29T07:29:44;102946.13;;;3.30;82.36
61506;BME280;47366;51.916;4.574;2023-01-29T07:32:09;102945.22;;;3.28;82.39
61506;BME280;47366;51.916;4.574;2023-01-29T07:34:34;102940.75;;;3.27;82.26
61506;BME280;47366;51.916;4.574;2023-01-29T07:37:00;102945.22;;;3.25;82.53
61506;BME280;47366;51.916;4.574;2023-01-29T07:39:25;102953.28;;;3.27;82.59
61506;BME280;47366;51.916;4.574;2023-01-29T07:41:50;102935.41;;;3.26;82.25
61506;BME280;47366;51.916;4.574;2023-01-29T07:44:16;102947.94;;;3.31;82.41
61506;BME280;47366;51.916;4.574;2023-01-29T07:46:41;102945.22;;;3.30;82.28
61506;BME280;47366;51.916;4.574;2023-01-29T07:49:07;102934.53;;;3.31;82.33
61506;BME280;47366;51.916;4.574;2023-01-29T07:51:32;102938.97;;;3.31;82.51
61506;BME280;47366;51.916;4.574;2023-01-29T07:53:57;102939.00;;;3.32;82.25
61506;BME280;47366;51.916;4.574;2023-01-29T07:56:23;102932.72;;;3.33;82.35
61506;BME280;47366;51.916;4.574;2023-01-29T07:58:48;102935.41;;;3.30;81.85
61506;BME280;47366;51.916;4.574;2023-01-29T08:01:13;102939.00;;;3.34;82.15
61506;BME280;47366;51.916;4.574;2023-01-29T08:03:39;102940.78;;;3.35;82.17
61506;BME280;47366;51.916;4.574;2023-01-29T08:06:04;102935.41;;;3.35;81.79
61506;BME280;47366;51.916;4.574;2023-01-29T08:08:30;102936.31;;;3.32;81.86
61506;BME280;47366;51.916;4.574;2023-01-29T08:10:55;102934.50;;;3.33;82.35
61506;BME280;47366;51.916;4.574;2023-01-29T08:13:20;102935.41;;;3.33;82.16
61506;BME280;47366;51.916;4.574;2023-01-29T08:15:46;102929.19;;;3.31;82.26
61506;BME280;47366;51.916;4.574;2023-01-29T08:18:12;102929.16;;;3.33;82.14
61506;BME280;47366;51.916;4.574;2023-01-29T08:20:38;102933.63;;;3.29;82.25
61506;BME280;47366;51.916;4.574;2023-01-29T08:23:14;102933.63;;;3.32;82.53
61506;BME280;47366;51.916;4.574;2023-01-29T08:25:41;102923.81;;;3.31;82.13
61506;BME280;47366;51.916;4.574;2023-01-29T08:28:06;102921.13;;;3.30;82.14
61506;BME280;47366;51.916;4.574;2023-01-29T08:30:33;102907.75;;;3.30;82.02
61506;BME280;47366;51.916;4.574;2023-01-29T08:32:59;102912.22;;;3.29;82.05
61506;BME280;47366;51.916;4.574;2023-01-29T08:35:24;102906.84;;;3.34;82.22
61506;BME280;47366;51.916;4.574;2023-01-29T08:37:55;102909.53;;;3.35;82.43
61506;BME280;47366;51.916;4.574;2023-01-29T08:40:22;102905.97;;;3.36;82.13
61506;BME280;47366;51.916;4.574;2023-01-29T08:42:48;102906.84;;;3.37;82.51
61506;BME280;47366;51.916;4.574;2023-01-29T08:45:13;102906.84;;;3.35;82.47
61506;BME280;47366;51.916;4.574;2023-01-29T08:47:47;102908.66;;;3.36;82.54
61506;BME280;47366;51.916;4.574;2023-01-29T08:50:14;102898.84;;;3.38;82.40
61506;BME280;47366;51.916;4.574;2023-01-29T08:52:40;102896.16;;;3.38;82.56
61506;BME280;47366;51.916;4.574;2023-01-29T08:55:05;102890.78;;;3.35;82.32
61506;BME280;47366;51.916;4.574;2023-01-29T08:57:31;102897.03;;;3.39;82.69
61506;BME280;47366;51.916;4.574;2023-01-29T08:59:56;102901.50;;;3.40;82.63
61506;BME280;47366;51.916;4.574;2023-01-29T09:02:21;102892.59;;;3.41;82.64
61506;BME280;47366;51.916;4.574;2023-01-29T09:04:47;102894.34;;;3.42;82.59
61506;BME280;47366;51.916;4.574;2023-01-29T09:07:12;102889.00;;;3.42;82.82
61506;BME280;47366;51.916;4.574;2023-01-29T09:09:37;102889.88;;;3.43;82.41
61506;BME280;47366;51.916;4.574;2023-01-29T09:12:03;102882.75;;;3.43;82.15
61506;BME280;47366;51.916;4.574;2023-01-29T09:14:28;102891.69;;;3.45;82.25
61506;BME280;47366;51.916;4.574;2023-01-29T09:16:54;102887.22;;;3.47;82.24
61506;BME280;47366;51.916;4.574;2023-01-29T09:19:19;102886.34;;;3.48;82.61
61506;BME280;47366;51.916;4.574;2023-01-29T09:21:44;102881.00;;;3.48;82.21
61506;BME280;47366;51.916;4.574;2023-01-29T09:24:10;102890.81;;;3.51;82.48
61506;BME280;47366;51.916;4.574;2023-01-29T09:26:35;102890.81;;;3.51;82.37
61506;BME280;47366;51.916;4.574;2023-01-29T09:29:00;102887.25;;;3.58;82.49
61506;BME280;47366;51.916;4.574;2023-01-29T09:31:26;102888.13;;;3.58;82.35
61506;BME280;47366;51.916;4.574;2023-01-29T09:33:51;102880.97;;;3.59;82.15
61506;BME280;47366;51.916;4.574;2023-01-29T09:36:16;102888.13;;;3.61;82.50
61506;BME280;47366;51.916;4.574;2023-01-29T09:38:42;102889.00;;;3.62;82.41
61506;BME280;47366;51.916;4.574;2023-01-29T09:41:29;102888.13;;;3.66;82.52
61506;BME280;47366;51.916;4.574;2023-01-29T09:44:14;102893.47;;;3.66;82.19
61506;BME280;47366;51.916;4.574;2023-01-29T09:46:45;102889.03;;;3.70;82.04
61506;BME280;47366;51.916;4.574;2023-01-29T09:49:25;102892.59;;;3.69;81.95
61506;BME280;47366;51.916;4.574;2023-01-29T09:51:57;102899.72;;;3.71;82.26
61506;BME280;47366;51.916;4.574;2023-01-29T09:54:32;102900.63;;;3.72;82.20
61506;BME280;47366;51.916;4.574;2023-01-29T09:57:01;102883.66;;;3.70;82.30
61506;BME280;47366;51.916;4.574;2023-01-29T09:59:29;102876.53;;;3.67;82.48
61506;BME280;47366;51.916;4.574;2023-01-29T10:07:20;102873.84;;;3.70;81.87
61506;BME280;47366;51.916;4.574;2023-01-29T10:16:06;102851.50;;;3.73;81.97
61506;BME280;47366;51.916;4.574;2023-01-29T10:23:36;102849.69;;;3.78;82.32
61506;BME280;47366;51.916;4.574;2023-01-29T10:26:02;102855.97;;;3.81;81.91
61506;BME280;47366;51.916;4.574;2023-01-29T10:28:42;102857.75;;;3.89;82.05
61506;BME280;47366;51.916;4.574;2023-01-29T10:31:32;102855.97;;;3.89;81.97
61506;BME280;47366;51.916;4.574;2023-01-29T10:37:13;102838.09;;;3.87;82.15
61506;BME280;47366;51.916;4.574;2023-01-29T10:39:39;102838.97;;;3.92;82.06
61506;BME280;47366;51.916;4.574;2023-01-29T10:42:33;102837.19;;;3.88;82.35
61506;BME280;47366;51.916;4.574;2023-01-29T10:53:32;102829.13;;;3.97;82.08
61506;BME280;47366;51.916;4.574;2023-01-29T10:59:02;102812.16;;;3.96;82.48
61506;BME280;47366;51.916;4.574;2023-01-29T11:01:29;102809.47;;;3.96;81.95
61506;BME280;47366;51.916;4.574;2023-01-29T11:03:57;102807.69;;;3.94;81.92
61506;BME280;47366;51.916;4.574;2023-01-29T11:06:28;102804.97;;;3.95;82.44
61506;BME280;47366;51.916;4.574;2023-01-29T11:11:51;102793.41;;;3.92;82.27
61506;BME280;47366;51.916;4.574;2023-01-29T11:14:24;102785.34;;;3.92;82.39
61506;BME280;47366;51.916;4.574;2023-01-29T11:16:50;102792.50;;;3.94;82.37
61506;BME280;47366;51.916;4.574;2023-01-29T11:19:16;102796.94;;;3.95;82.71
61506;BME280;47366;51.916;4.574;2023-01-29T11:21:57;102793.38;;;3.96;82.68
61506;BME280;47366;51.916;4.574;2023-01-29T11:24:24;102780.88;;;3.94;82.63
61506;BME280;47366;51.916;4.574;2023-01-29T11:26:51;102788.00;;;3.99;82.16
61506;BME280;47366;51.916;4.574;2023-01-29T11:29:33;102795.16;;;4.00;82.58
61506;BME280;47366;51.916;4.574;2023-01-29T11:32:07;102791.56;;;4.04;82.98
61506;BME280;47366;51.916;4.574;2023-01-29T11:37:39;102781.72;;;4.07;82.33
61506;BME280;47366;51.916;4.574;2023-01-29T11:42:43;102769.19;;;4.15;82.19
61506;BME280;47366;51.916;4.574;2023-01-29T11:45:29;102770.97;;;4.16;82.09
61506;BME280;47366;51.916;4.574;2023-01-29T11:47:57;102762.03;;;4.14;82.63
61506;BME280;47366;51.916;4.574;2023-01-29T11:50:26;102755.75;;;4.16;82.14
61506;BME280;47366;51.916;4.574;2023-01-29T11:52:52;102755.75;;;4.21;82.90
61506;BME280;47366;51.916;4.574;2023-01-29T11:55:21;102758.41;;;4.24;82.60
61506;BME280;47366;51.916;4.574;2023-01-29T12:00:38;102753.03;;;4.25;82.38
61506;BME280;47366;51.916;4.574;2023-01-29T12:05:57;102742.31;;;4.25;82.74
61506;BME280;47366;51.916;4.574;2023-01-29T12:08:25;102734.28;;;4.25;82.43
61506;BME280;47366;51.916;4.574;2023-01-29T12:11:06;102736.97;;;4.27;82.46
61506;BME280;47366;51.916;4.574;2023-01-29T12:13:32;102727.13;;;4.28;82.87
61506;BME280;47366;51.916;4.574;2023-01-29T12:18:43;102719.03;;;4.32;82.94
61506;BME280;47366;51.916;4.574;2023-01-29T12:21:17;102713.66;;;4.35;82.62
61506;BME280;47366;51.916;4.574;2023-01-29T12:23:56;102707.41;;;4.35;82.55
61506;BME280;47366;51.916;4.574;2023-01-29T12:26:43;102701.13;;;4.36;82.40
61506;BME280;47366;51.916;4.574;2023-01-29T12:29:44;102690.38;;;4.40;82.39
61506;BME280;47366;51.916;4.574;2023-01-29T12:35:30;102676.91;;;4.48;82.38
61506;BME280;47366;51.916;4.574;2023-01-29T12:40:57;102662.56;;;4.54;82.03
61506;BME280;47366;51.916;4.574;2023-01-29T12:43:29;102640.16;;;4.61;82.27
61506;BME280;47366;51.916;4.574;2023-01-29T12:45:57;102633.81;;;4.70;81.87
61506;BME280;47366;51.916;4.574;2023-01-29T12:48:32;102634.63;;;4.76;81.64
61506;BME280;47366;51.916;4.574;2023-01-29T12:51:05;102629.25;;;4.79;81.60
61506;BME280;47366;51.916;4.574;2023-01-29T12:54:08;102617.59;;;4.82;81.10
61506;BME280;47366;51.916;4.574;2023-01-29T12:56:43;102631.03;;;4.82;81.26
61506;BME280;47366;51.916;4.574;2023-01-29T12:59:43;102620.34;;;4.77;81.19
61506;BME280;47366;51.916;4.574;2023-01-29T13:04:46;102600.69;;;4.72;81.27
61506;BME280;47366;51.916;4.574;2023-01-29T13:07:29;102596.19;;;4.74;81.48
61506;BME280;47366;51.916;4.574;2023-01-29T13:10:02;102592.59;;;4.77;81.57
61506;BME280;47366;51.916;4.574;2023-01-29T13:12:30;102582.72;;;4.79;81.27
61506;BME280;47366;51.916;4.574;2023-01-29T13:15:02;102571.13;;;4.74;81.10
61506;BME280;47366;51.916;4.574;2023-01-29T13:17:33;102564.88;;;4.72;81.18
61506;BME280;47366;51.916;4.574;2023-01-29T13:20:10;102566.66;;;4.74;81.28
61506;BME280;47366;51.916;4.574;2023-01-29T13:22:38;102562.19;;;4.72;81.01
61506;BME280;47366;51.916;4.574;2023-01-29T13:25:05;102555.91;;;4.74;81.68
61506;BME280;47366;51.916;4.574;2023-01-29T13:27:35;102551.47;;;4.75;81.47
61506;BME280;47366;51.916;4.574;2023-01-29T13:30:01;102538.91;;;4.77;80.97
61506;BME280;47366;51.916;4.574;2023-01-29T13:32:33;102532.63;;;4.79;81.34
61506;BME280;47366;51.916;4.574;2023-01-29T13:35:02;102533.47;;;4.81;81.29
61506;BME280;47366;51.916;4.574;2023-01-29T13:37:33;102526.34;;;4.82;81.34
61506;BME280;47366;51.916;4.574;2023-01-29T13:40:02;102521.75;;;4.88;81.44
61506;BME280;47366;51.916;4.574;2023-01-29T13:42:46;102524.41;;;4.93;81.20
61506;BME280;47366;51.916;4.574;2023-01-29T13:45:20;102524.38;;;4.96;81.19
61506;BME280;47366;51.916;4.574;2023-01-29T13:47:46;102517.22;;;4.98;81.09
61506;BME280;47366;51.916;4.574;2023-01-29T13:50:27;102522.47;;;5.06;81.44
61506;BME280;47366;51.916;4.574;2023-01-29T13:55:43;102514.31;;;5.15;81.36
61506;BME280;47366;51.916;4.574;2023-01-29T14:00:49;102503.56;;;5.15;80.76
61506;BME280;47366;51.916;4.574;2023-01-29T14:05:56;102507.97;;;5.21;81.03
61506;BME280;47366;51.916;4.574;2023-01-29T14:13:38;102495.47;;;5.18;81.50
61506;BME280;47366;51.916;4.574;2023-01-29T14:18:30;102491.03;;;5.14;81.46
61506;BME280;47366;51.916;4.574;2023-01-29T14:21:32;102492.88;;;5.10;81.43
61506;BME280;47366;51.916;4.574;2023-01-29T14:23:54;102483.03;;;5.09;81.68
61506;BME280;47366;51.916;4.574;2023-01-29T14:26:22;102485.72;;;5.09;81.67
61506;BME280;47366;51.916;4.574;2023-01-29T14:28:53;102476.78;;;5.07;81.54
61506;BME280;47366;51.916;4.574;2023-01-29T14:33:59;102480.44;;;5.02;82.11
61506;BME280;47366;51.916;4.574;2023-01-29T14:36:26;102476.00;;;4.99;81.87
61506;BME280;47366;51.916;4.574;2023-01-29T14:38:52;102471.56;;;4.97;81.82
61506;BME280;47366;51.916;4.574;2023-01-29T14:41:28;102470.69;;;4.95;82.08
61506;BME280;47366;51.916;4.574;2023-01-29T14:46:57;102467.19;;;4.88;82.50
61506;BME280;47366;51.916;4.574;2023-01-29T14:49:48;102464.59;;;4.82;82.63
61506;BME280;47366;51.916;4.574;2023-01-29T14:52:14;102466.41;;;4.80;82.41
61506;BME280;47366;51.916;4.574;2023-01-29T14:54:41;102474.50;;;4.75;82.79
61506;BME280;47366;51.916;4.574;2023-01-29T14:57:10;102462.84;;;4.76;82.57
61506;BME280;47366;51.916;4.574;2023-01-29T15:02:18;102450.41;;;4.69;82.83
61506;BME280;47366;51.916;4.574;2023-01-29T15:04:50;102449.50;;;4.70;83.00
61506;BME280;47366;51.916;4.574;2023-01-29T15:07:33;102449.50;;;4.68;83.13
61506;BME280;47366;51.916;4.574;2023-01-29T15:10:26;102456.69;;;4.68;83.25
61506;BME280;47366;51.916;4.574;2023-01-29T15:13:06;102443.28;;;4.66;83.24
61506;BME280;47366;51.916;4.574;2023-01-29T15:15:45;102448.63;;;4.66;83.41
61506;BME280;47366;51.916;4.574;2023-01-29T15:18:30;102451.31;;;4.66;83.34
61506;BME280;47366;51.916;4.574;2023-01-29T15:21:08;102446.91;;;4.62;83.51
61506;BME280;47366;51.916;4.574;2023-01-29T15:23:36;102438.88;;;4.62;83.91
61506;BME280;47366;51.916;4.574;2023-01-29T15:26:04;102444.22;;;4.62;84.15
61506;BME280;47366;51.916;4.574;2023-01-29T15:28:31;102439.81;;;4.58;84.81